createdAt,value
2023-03-08T00:00:40.993Z,7.83
2023-03-08T00:03:07.774Z,7.20
2023-03-08T00:05:38.854Z,8.60
2023-03-08T00:08:05.546Z,10.93
2023-03-08T00:10:32.850Z,7.27
2023-03-08T00:12:59.526Z,9.80
2023-03-08T00:15:26.266Z,10.20
2023-03-08T00:17:52.993Z,10.27
2023-03-08T00:20:19.626Z,8.07
2023-03-08T00:22:46.372Z,7.43
2023-03-08T00:25:16.485Z,10.97
2023-03-08T00:27:43.536Z,7.87
2023-03-08T00:30:10.924Z,9.77
2023-03-08T00:32:37.530Z,9.00
2023-03-08T00:35:04.515Z,10.90
2023-03-08T00:37:31.200Z,10.67
2023-03-08T00:39:57.854Z,10.60
2023-03-08T00:42:24.904Z,12.97
2023-03-08T00:44:51.921Z,11.80
2023-03-08T00:47:18.602Z,8.63
2023-03-08T00:49:45.281Z,9.27
2023-03-08T00:52:11.905Z,10.83
2023-03-08T00:54:38.737Z,12.83
2023-03-08T00:57:05.415Z,9.43
2023-03-08T00:59:32.450Z,10.30
2023-03-08T01:02:00.752Z,7.90
2023-03-08T01:04:27.454Z,10.93
2023-03-08T01:06:54.121Z,9.13
2023-03-08T01:09:20.728Z,8.37
2023-03-08T01:11:47.267Z,8.30
2023-03-08T01:14:13.833Z,7.27
2023-03-08T01:16:40.977Z,9.47
2023-03-08T01:19:07.615Z,8.50
2023-03-08T01:21:34.644Z,7.47
2023-03-08T01:24:01.463Z,6.53
2023-03-08T01:26:28.566Z,8.47
2023-03-08T01:28:55.967Z,7.27
2023-03-08T01:31:26.969Z,8.03
2023-03-08T01:33:55.365Z,7.23
2023-03-08T01:36:23.260Z,6.47
2023-03-08T01:38:50.225Z,8.00
2023-03-08T01:41:18.983Z,6.07
2023-03-08T01:43:46.147Z,6.43
2023-03-08T01:46:19.492Z,7.73
2023-03-08T01:48:51.086Z,6.47
2023-03-08T01:51:26.260Z,7.17
2023-03-08T01:53:53.857Z,5.60
2023-03-08T01:56:20.773Z,5.30
2023-03-08T01:58:50.665Z,6.70
2023-03-08T02:01:18.643Z,6.17
2023-03-08T02:03:46.914Z,10.43
2023-03-08T02:06:16.592Z,8.03
2023-03-08T02:08:43.583Z,6.23
2023-03-08T02:11:11.656Z,6.03
2023-03-08T02:13:40.387Z,4.80
2023-03-08T02:16:09.930Z,6.60
2023-03-08T02:18:37.488Z,5.37
2023-03-08T02:21:05.993Z,6.00
2023-03-08T02:23:33.830Z,7.80
2023-03-08T02:26:01.772Z,7.20
2023-03-08T02:28:29.207Z,5.40
2023-03-08T02:30:56.330Z,6.67
2023-03-08T02:33:23.269Z,6.17
2023-03-08T02:35:50.289Z,5.50
2023-03-08T02:38:18.720Z,4.67
2023-03-08T02:40:46.237Z,6.50
2023-03-08T02:43:12.911Z,8.03
2023-03-08T02:45:40.188Z,5.37
2023-03-08T02:48:08.963Z,7.97
2023-03-08T02:50:36.754Z,8.73
2023-03-08T02:53:06.558Z,7.80
2023-03-08T02:55:36.315Z,5.97
2023-03-08T02:58:08.958Z,7.60
2023-03-08T03:00:36.476Z,8.10
2023-03-08T03:03:03.566Z,9.60
2023-03-08T03:05:30.241Z,8.20
2023-03-08T03:07:59.285Z,7.00
2023-03-08T03:10:27.812Z,8.97
2023-03-08T03:12:55.617Z,9.27
2023-03-08T03:15:25.898Z,7.77
2023-03-08T03:17:56.910Z,9.70
2023-03-08T03:20:23.577Z,9.43
2023-03-08T03:22:50.212Z,8.07
2023-03-08T03:25:19.228Z,9.43
2023-03-08T03:27:47.756Z,7.60
2023-03-08T03:30:15.633Z,10.20
2023-03-08T03:32:43.636Z,10.50
2023-03-08T03:35:11.442Z,11.43
2023-03-08T03:37:38.724Z,9.23
2023-03-08T03:40:06.560Z,12.60
2023-03-08T03:42:33.376Z,10.83
2023-03-08T03:45:06.621Z,9.00
2023-03-08T03:47:33.638Z,11.60
2023-03-08T03:50:03.947Z,10.37
2023-03-08T03:52:39.725Z,10.63
2023-03-08T03:55:06.771Z,9.73
2023-03-08T03:57:33.823Z,10.53
2023-03-08T04:00:00.772Z,8.00
2023-03-08T04:02:28.357Z,7.90
2023-03-08T04:04:58.621Z,9.90
2023-03-08T04:07:28.944Z,7.03
2023-03-08T04:09:58.189Z,9.87
2023-03-08T04:12:25.439Z,8.93
2023-03-08T04:14:53.227Z,6.13
2023-03-08T04:17:20.853Z,6.50
2023-03-08T04:19:51.600Z,6.87
2023-03-08T04:22:19.642Z,9.33
2023-03-08T04:24:53.069Z,10.33
2023-03-08T04:27:29.476Z,8.77
2023-03-08T04:29:56.328Z,8.83
2023-03-08T04:32:23.811Z,7.90
2023-03-08T04:34:55.713Z,6.10
2023-03-08T04:37:25.724Z,6.90
2023-03-08T04:39:56.658Z,10.70
2023-03-08T04:42:24.352Z,12.10
2023-03-08T04:44:52.076Z,9.70
2023-03-08T04:47:21.719Z,7.40
2023-03-08T04:49:48.749Z,6.70
2023-03-08T04:52:15.580Z,7.37
2023-03-08T04:54:44.282Z,9.67
2023-03-08T04:57:21.297Z,10.50
2023-03-08T04:59:50.015Z,11.50
2023-03-08T05:02:16.959Z,13.20
2023-03-08T05:04:45.660Z,11.83
2023-03-08T05:07:12.470Z,10.33
2023-03-08T05:09:39.404Z,10.47
2023-03-08T05:12:06.335Z,13.90
2023-03-08T05:14:48.336Z,9.77
2023-03-08T05:17:15.020Z,9.70
2023-03-08T05:19:41.711Z,6.70
2023-03-08T05:22:09.195Z,9.53
2023-03-08T05:24:42.547Z,4.20
2023-03-08T05:27:11.826Z,7.47
2023-03-08T05:29:39.666Z,5.50
2023-03-08T05:32:06.734Z,9.80
2023-03-08T05:34:34.340Z,7.07
2023-03-08T05:37:03.611Z,5.67
2023-03-08T05:39:32.854Z,7.80
2023-03-08T05:42:05.669Z,5.37
2023-03-08T05:44:38.427Z,6.20
2023-03-08T05:47:07.229Z,6.27
2023-03-08T05:49:33.935Z,7.80
2023-03-08T05:52:01.206Z,6.63
2023-03-08T05:54:28.827Z,9.10
2023-03-08T05:56:59.920Z,7.77
2023-03-08T05:59:27.609Z,7.77
2023-03-08T06:01:58.192Z,6.87
2023-03-08T06:04:44.208Z,6.90
2023-03-08T06:07:12.749Z,8.13
2023-03-08T06:09:43.771Z,9.43
2023-03-08T06:12:14.782Z,7.07
2023-03-08T06:14:44.120Z,7.13
2023-03-08T06:17:12.399Z,6.20
2023-03-08T06:19:43.180Z,7.17
2023-03-08T06:22:11.835Z,5.57
2023-03-08T06:24:38.857Z,6.53
2023-03-08T06:27:08.214Z,6.40
2023-03-08T06:29:36.372Z,5.03
2023-03-08T06:32:03.769Z,5.40
2023-03-08T06:34:32.209Z,7.70
2023-03-08T06:37:00.226Z,6.30
2023-03-08T06:39:31.768Z,5.90
2023-03-08T06:42:02.762Z,7.50
2023-03-08T06:44:30.972Z,5.90
2023-03-08T06:46:57.675Z,9.27
2023-03-08T06:49:25.270Z,6.70
2023-03-08T06:51:51.970Z,8.77
2023-03-08T06:54:18.778Z,7.57
2023-03-08T06:56:47.028Z,6.27
2023-03-08T06:59:14.054Z,6.70
2023-03-08T07:01:40.937Z,7.43
2023-03-08T07:04:07.722Z,7.23
2023-03-08T07:06:34.484Z,7.10
2023-03-08T07:09:01.297Z,7.17
2023-03-08T07:11:29.669Z,7.40
2023-03-08T07:13:57.060Z,6.93
2023-03-08T07:16:23.826Z,7.53
2023-03-08T07:18:50.492Z,8.00
2023-03-08T07:21:17.641Z,7.00
2023-03-08T07:23:44.327Z,7.40
2023-03-08T07:26:11.918Z,9.30
2023-03-08T07:28:38.918Z,8.57
2023-03-08T07:31:06.051Z,8.37
2023-03-08T07:33:35.207Z,8.70
2023-03-08T07:36:02.641Z,8.40
2023-03-08T07:38:29.748Z,9.03
2023-03-08T07:40:57.144Z,9.87
2023-03-08T07:43:24.255Z,11.20
2023-03-08T07:45:59.211Z,10.27
2023-03-08T07:48:25.835Z,10.10
2023-03-08T07:50:52.743Z,9.37
2023-03-08T07:53:19.418Z,9.90
2023-03-08T07:55:46.159Z,10.87
2023-03-08T07:58:12.974Z,12.60
2023-03-08T08:00:39.511Z,8.90
2023-03-08T08:03:06.170Z,10.07
2023-03-08T08:05:34.834Z,10.00
2023-03-08T08:08:01.508Z,9.43
2023-03-08T08:10:29.066Z,12.00
2023-03-08T08:12:55.684Z,11.30
2023-03-08T08:15:25.295Z,11.47
2023-03-08T08:17:52.492Z,10.27
2023-03-08T08:20:20.647Z,11.50
2023-03-08T08:22:47.719Z,11.27
2023-03-08T08:25:14.793Z,10.77
2023-03-08T08:27:41.484Z,10.63
2023-03-08T08:30:12.050Z,11.87
2023-03-08T08:32:38.743Z,11.50
2023-03-08T08:35:06.564Z,18.73
2023-03-08T08:37:33.283Z,13.80
2023-03-08T08:40:00.357Z,13.70
2023-03-08T08:42:26.952Z,15.30
2023-03-08T08:44:53.702Z,12.10
2023-03-08T08:47:20.384Z,14.17
2023-03-08T08:49:47.071Z,14.17
2023-03-08T08:52:13.632Z,13.40
2023-03-08T08:54:40.405Z,15.40
2023-03-08T08:57:07.867Z,13.73
2023-03-08T08:59:34.562Z,15.83
2023-03-08T09:02:01.840Z,18.03
2023-03-08T09:04:28.605Z,12.10
2023-03-08T09:06:55.363Z,14.40
2023-03-08T09:09:22.080Z,15.60
2023-03-08T09:11:54.762Z,13.53
2023-03-08T09:14:22.285Z,15.73
2023-03-08T09:16:49.007Z,15.10
2023-03-08T09:19:15.715Z,15.00
2023-03-08T09:21:42.370Z,14.00
2023-03-08T09:24:10.540Z,20.20
2023-03-08T09:26:37.437Z,19.17
2023-03-08T09:29:07.901Z,17.80
2023-03-08T09:31:37.104Z,18.03
2023-03-08T09:34:09.312Z,16.93
2023-03-08T09:36:36.864Z,23.83
2023-03-08T09:39:04.095Z,34.13
2023-03-08T09:41:33.439Z,25.57
2023-03-08T09:44:11.008Z,24.97
2023-03-08T09:46:52.570Z,29.43
2023-03-08T09:49:21.765Z,29.17
2023-03-08T09:51:50.232Z,14.27
2023-03-08T09:54:20.252Z,28.87
2023-03-08T09:56:48.381Z,23.17
2023-03-08T09:59:23.974Z,41.77
2023-03-08T10:02:10.489Z,30.97
2023-03-08T10:05:06.159Z,15.70
2023-03-08T10:08:01.498Z,31.70
2023-03-08T10:10:37.973Z,17.47
2023-03-08T10:13:20.191Z,15.60
2023-03-08T10:15:49.930Z,28.77
2023-03-08T10:18:21.208Z,17.60
2023-03-08T10:20:48.250Z,26.90
2023-03-08T10:23:16.282Z,17.97
2023-03-08T10:25:43.317Z,11.33
2023-03-08T10:28:13.646Z,22.87
2023-03-08T10:30:42.790Z,24.20
2023-03-08T10:33:11.287Z,19.83
2023-03-08T10:35:39.442Z,29.43
2023-03-08T10:38:15.250Z,19.13
2023-03-08T10:40:41.873Z,14.53
2023-03-08T10:43:15.023Z,16.40
2023-03-08T10:45:41.729Z,12.10
2023-03-08T10:48:17.974Z,13.27
2023-03-08T10:50:44.517Z,14.77
2023-03-08T10:53:20.897Z,14.53
2023-03-08T10:55:52.161Z,14.57
2023-03-08T10:58:32.854Z,13.53
2023-03-08T11:01:00.876Z,14.10
2023-03-08T11:03:27.818Z,15.97
2023-03-08T11:05:59.361Z,14.33
2023-03-08T11:08:28.215Z,14.90
2023-03-08T11:11:01.914Z,15.70
2023-03-08T11:13:36.876Z,14.13
2023-03-08T11:16:09.444Z,17.27
2023-03-08T11:18:39.559Z,12.80
2023-03-08T11:21:10.049Z,18.67
2023-03-08T11:23:43.813Z,13.73
2023-03-08T11:26:29.274Z,14.70
2023-03-08T11:28:55.951Z,15.47
2023-03-08T11:31:31.916Z,11.83
2023-03-08T11:33:58.760Z,11.47
2023-03-08T11:36:28.738Z,13.97
2023-03-08T11:39:02.450Z,16.37
2023-03-08T11:41:29.032Z,18.50
2023-03-08T11:44:17.252Z,15.77
2023-03-08T11:47:02.668Z,14.97
2023-03-08T11:49:47.696Z,20.73
2023-03-08T11:52:22.304Z,18.03
2023-03-08T11:55:16.163Z,18.53
2023-03-08T11:57:45.267Z,19.60
2023-03-08T12:00:16.421Z,21.70
2023-03-08T12:02:46.162Z,17.60
2023-03-08T12:05:14.826Z,15.43
2023-03-08T12:07:56.127Z,16.40
2023-03-08T12:10:24.039Z,14.77
2023-03-08T12:12:50.678Z,17.77
2023-03-08T12:15:28.879Z,15.03
2023-03-08T12:18:18.547Z,15.60
2023-03-08T12:20:46.453Z,16.70
2023-03-08T12:23:31.736Z,17.63
2023-03-08T12:26:18.692Z,20.07
2023-03-08T12:28:48.434Z,25.97
2023-03-08T12:31:27.754Z,26.40
2023-03-08T12:33:56.153Z,21.97
2023-03-08T12:36:23.064Z,21.77
2023-03-08T12:38:55.761Z,28.27
2023-03-08T12:41:30.104Z,24.87
2023-03-08T12:43:59.781Z,21.00
2023-03-08T12:46:26.415Z,16.50
2023-03-08T12:48:53.981Z,28.23
2023-03-08T12:51:24.103Z,38.30
2023-03-08T12:53:50.760Z,20.37
2023-03-08T12:56:20.177Z,20.93
2023-03-08T12:59:16.148Z,22.80
2023-03-08T13:01:43.760Z,24.13
2023-03-08T13:04:39.034Z,18.40
2023-03-08T13:07:09.763Z,34.87
2023-03-08T13:09:42.415Z,18.97
2023-03-08T13:12:08.979Z,20.30
2023-03-08T13:14:41.784Z,19.67
2023-03-08T13:17:27.088Z,13.57
2023-03-08T13:19:54.389Z,27.13
2023-03-08T13:22:24.959Z,19.07
2023-03-08T13:24:56.842Z,17.97
2023-03-08T13:27:35.936Z,17.43
2023-03-08T13:30:17.231Z,18.80
2023-03-08T13:32:44.198Z,16.90
2023-03-08T13:35:14.675Z,18.53
2023-03-08T13:37:41.356Z,20.13
2023-03-08T13:40:16.372Z,19.53
2023-03-08T13:42:55.535Z,20.17
2023-03-08T13:45:22.641Z,20.47
2023-03-08T13:47:49.965Z,22.37
2023-03-08T13:50:17.618Z,23.17
2023-03-08T13:52:44.209Z,19.93
2023-03-08T13:55:15.900Z,21.87
2023-03-08T13:57:42.816Z,17.80
2023-03-08T14:00:18.890Z,16.67
2023-03-08T14:02:46.985Z,18.43
2023-03-08T14:05:16.982Z,16.70
2023-03-08T14:07:43.628Z,20.20
2023-03-08T14:10:13.409Z,22.57
2023-03-08T14:12:40.152Z,20.17
2023-03-08T14:15:07.151Z,20.10
2023-03-08T14:17:35.179Z,26.77
2023-03-08T14:20:05.199Z,23.40
2023-03-08T14:22:39.695Z,21.33
2023-03-08T14:25:07.639Z,18.30
2023-03-08T14:27:38.964Z,21.00
2023-03-08T14:30:14.221Z,52.53
2023-03-08T14:32:42.717Z,49.23
2023-03-08T14:35:19.972Z,25.33
2023-03-08T14:37:47.526Z,23.87
2023-03-08T14:40:14.322Z,21.30
2023-03-08T14:42:43.725Z,24.83
2023-03-08T14:45:20.709Z,24.17
2023-03-08T14:47:55.953Z,26.03
2023-03-08T14:50:27.156Z,28.27
2023-03-08T14:52:55.088Z,21.87
2023-03-08T14:55:22.445Z,24.23
2023-03-08T14:57:50.733Z,25.87
2023-03-08T15:00:17.683Z,21.40
2023-03-08T15:02:44.307Z,20.00
2023-03-08T15:05:28.487Z,26.00
2023-03-08T15:07:56.340Z,21.73
2023-03-08T15:10:30.636Z,47.10
2023-03-08T15:12:58.395Z,24.80
2023-03-08T15:15:25.370Z,23.00
2023-03-08T15:17:52.446Z,37.33
2023-03-08T15:20:19.580Z,32.57
2023-03-08T15:22:54.241Z,18.20
2023-03-08T15:25:26.741Z,22.10
2023-03-08T15:27:53.399Z,59.60
2023-03-08T15:30:24.584Z,68.90
2023-03-08T15:32:51.467Z,59.03
2023-03-08T15:35:18.560Z,47.03
2023-03-08T15:37:45.973Z,76.47
2023-03-08T15:40:15.315Z,46.23
2023-03-08T15:42:42.472Z,79.67
2023-03-08T15:45:10.792Z,69.57
2023-03-08T15:47:38.245Z,160.23
2023-03-08T15:50:14.284Z,71.33
2023-03-08T15:52:41.117Z,58.23
2023-03-08T15:55:08.149Z,33.17
2023-03-08T15:57:35.122Z,46.17
2023-03-08T16:00:01.983Z,61.27
2023-03-08T16:02:37.746Z,67.27
2023-03-08T16:05:05.098Z,61.60
2023-03-08T16:07:32.001Z,72.80
2023-03-08T16:09:58.635Z,62.60
2023-03-08T16:12:26.312Z,64.90
2023-03-08T16:14:57.727Z,61.63
2023-03-08T16:17:28.259Z,52.60
2023-03-08T16:19:55.026Z,48.50
2023-03-08T16:22:21.847Z,38.13
2023-03-08T16:24:49.175Z,41.47
2023-03-08T16:27:15.954Z,50.00
2023-03-08T16:29:42.757Z,46.07
2023-03-08T16:32:10.437Z,57.03
2023-03-08T16:34:38.062Z,63.53
2023-03-08T16:37:05.715Z,66.17
2023-03-08T16:39:32.439Z,55.07
2023-03-08T16:41:59.062Z,75.43
2023-03-08T16:44:29.592Z,62.97
2023-03-08T16:46:56.195Z,83.77
2023-03-08T16:49:28.098Z,65.00
2023-03-08T16:51:55.170Z,65.07
2023-03-08T16:54:21.859Z,80.17
2023-03-08T16:56:48.478Z,93.60
2023-03-08T16:59:16.570Z,105.77
2023-03-08T17:01:43.934Z,73.00
2023-03-08T17:04:11.308Z,97.83
2023-03-08T17:06:38.593Z,82.47
2023-03-08T17:09:05.971Z,53.83
2023-03-08T17:11:33.713Z,108.90
2023-03-08T17:14:01.723Z,107.73
2023-03-08T17:16:29.108Z,74.50
2023-03-08T17:18:56.244Z,102.33
2023-03-08T17:21:23.761Z,117.83
2023-03-08T17:23:51.041Z,109.97
2023-03-08T17:26:18.555Z,98.80
2023-03-08T17:28:45.238Z,111.27
2023-03-08T17:31:16.757Z,94.50
2023-03-08T17:33:43.729Z,103.30
2023-03-08T17:36:11.243Z,112.53
2023-03-08T17:38:37.904Z,98.67
2023-03-08T17:41:05.893Z,79.80
2023-03-08T17:43:35.761Z,102.90
2023-03-08T17:46:02.453Z,81.17
2023-03-08T17:48:30.887Z,116.00
2023-03-08T17:51:04.932Z,112.50
2023-03-08T17:53:31.972Z,109.20
2023-03-08T17:56:00.352Z,109.07
2023-03-08T17:58:28.128Z,132.07
2023-03-08T18:00:55.012Z,104.03
2023-03-08T18:03:21.867Z,172.33
2023-03-08T18:05:52.378Z,130.30
2023-03-08T18:08:19.040Z,132.43
2023-03-08T18:10:45.626Z,138.63
2023-03-08T18:13:12.447Z,127.80
2023-03-08T18:15:39.049Z,78.20
2023-03-08T18:18:05.701Z,178.50
2023-03-08T18:20:32.329Z,170.80
2023-03-08T18:22:59.091Z,167.17
2023-03-08T18:25:25.814Z,147.97
2023-03-08T18:27:52.431Z,193.07
2023-03-08T18:30:19.283Z,187.57
2023-03-08T18:32:48.606Z,141.47
2023-03-08T18:35:15.311Z,241.50
2023-03-08T18:37:42.112Z,179.33
2023-03-08T18:40:12.692Z,184.13
2023-03-08T18:42:40.407Z,176.97
2023-03-08T18:45:09.709Z,169.73
2023-03-08T18:47:37.009Z,84.43
2023-03-08T18:50:04.553Z,165.40
2023-03-08T18:52:31.464Z,180.73
2023-03-08T18:54:58.599Z,151.50
2023-03-08T18:57:25.277Z,109.53
2023-03-08T18:59:51.962Z,154.93
2023-03-08T19:02:18.695Z,197.87
2023-03-08T19:04:45.393Z,182.63
2023-03-08T19:07:13.154Z,134.60
2023-03-08T19:09:43.629Z,117.80
2023-03-08T19:12:10.740Z,97.47
2023-03-08T19:14:37.715Z,146.67
2023-03-08T19:17:04.403Z,129.93
2023-03-08T19:19:31.106Z,145.20
2023-03-08T19:21:57.741Z,196.03
2023-03-08T19:24:24.636Z,116.17
2023-03-08T19:26:52.731Z,140.50
2023-03-08T19:29:37.499Z,138.37
2023-03-08T19:32:05.621Z,123.53
2023-03-08T19:34:36.467Z,149.60
2023-03-08T19:37:03.634Z,112.13
2023-03-08T19:39:31.431Z,111.27
2023-03-08T19:41:59.632Z,123.93
2023-03-08T19:44:27.654Z,164.10
2023-03-08T19:46:54.576Z,91.63
2023-03-08T19:49:22.775Z,151.50
2023-03-08T19:51:51.006Z,140.87
2023-03-08T19:54:17.916Z,98.07
2023-03-08T19:56:44.612Z,85.07
2023-03-08T19:59:11.292Z,110.70
2023-03-08T20:01:38.450Z,145.17
2023-03-08T20:04:05.395Z,116.87
2023-03-08T20:06:33.566Z,137.80
2023-03-08T20:09:01.499Z,89.33
2023-03-08T20:11:28.994Z,70.73
2023-03-08T20:13:55.857Z,102.50
2023-03-08T20:16:23.188Z,141.03
2023-03-08T20:18:49.965Z,144.10
2023-03-08T20:21:17.051Z,84.37
2023-03-08T20:23:43.695Z,97.77
2023-03-08T20:26:10.304Z,105.70
2023-03-08T20:28:37.424Z,108.83
2023-03-08T20:31:11.596Z,126.70
2023-03-08T20:33:39.187Z,116.70
2023-03-08T20:36:05.970Z,70.93
2023-03-08T20:38:32.841Z,79.60
2023-03-08T20:41:08.632Z,105.80
2023-03-08T20:43:35.730Z,81.07
2023-03-08T20:46:06.621Z,56.07
2023-03-08T20:48:34.016Z,40.37
2023-03-08T20:51:05.381Z,54.00
2023-03-08T20:53:33.019Z,40.43
2023-03-08T20:55:59.962Z,62.97
2023-03-08T20:58:26.559Z,44.47
2023-03-08T21:00:53.159Z,51.40
2023-03-08T21:03:19.811Z,49.30
2023-03-08T21:05:46.462Z,46.77
2023-03-08T21:08:13.087Z,49.53
2023-03-08T21:10:41.473Z,60.47
2023-03-08T21:13:08.150Z,44.80
2023-03-08T21:15:35.238Z,57.17
2023-03-08T21:18:02.529Z,66.00
2023-03-08T21:20:29.706Z,64.60
2023-03-08T21:22:57.368Z,67.27
2023-03-08T21:25:23.941Z,42.30
2023-03-08T21:27:50.505Z,61.27
2023-03-08T21:30:17.196Z,53.90
2023-03-08T21:32:43.814Z,62.03
2023-03-08T21:35:10.569Z,53.33
2023-03-08T21:37:37.448Z,54.17
2023-03-08T21:40:06.093Z,46.70
2023-03-08T21:42:32.776Z,67.53
2023-03-08T21:44:59.789Z,55.67
2023-03-08T21:47:26.469Z,77.10
2023-03-08T21:49:55.287Z,54.00
2023-03-08T21:52:21.966Z,50.47
2023-03-08T21:54:48.529Z,53.77
2023-03-08T21:57:15.180Z,85.50
2023-03-08T21:59:41.790Z,66.70
2023-03-08T22:02:09.568Z,108.90
2023-03-08T22:04:37.486Z,62.03
2023-03-08T22:07:04.128Z,71.57
2023-03-08T22:09:30.714Z,46.53
2023-03-08T22:11:58.575Z,85.67
2023-03-08T22:14:25.420Z,93.27
2023-03-08T22:16:53.216Z,77.87
2023-03-08T22:19:19.856Z,66.60
2023-03-08T22:21:46.486Z,130.20
2023-03-08T22:24:13.289Z,103.87
2023-03-08T22:26:39.989Z,67.83
2023-03-08T22:29:06.679Z,73.73
2023-03-08T22:31:33.349Z,77.93
2023-03-08T22:34:01.485Z,111.33
2023-03-08T22:36:28.208Z,114.17
2023-03-08T22:38:54.807Z,89.73
2023-03-08T22:41:23.176Z,79.23
2023-03-08T22:43:50.412Z,100.43
2023-03-08T22:46:18.592Z,93.07
2023-03-08T22:48:46.138Z,63.80
2023-03-08T22:51:13.384Z,71.87
2023-03-08T22:53:40.586Z,104.60
2023-03-08T22:56:07.847Z,83.43
2023-03-08T22:58:34.728Z,82.87
2023-03-08T23:01:01.632Z,79.90
2023-03-08T23:03:28.387Z,88.97
2023-03-08T23:05:56.263Z,47.40
2023-03-08T23:08:24.356Z,53.00
2023-03-08T23:10:51.105Z,30.27
2023-03-08T23:13:32.712Z,27.63
2023-03-08T23:15:59.889Z,23.83
2023-03-08T23:18:26.493Z,24.67
2023-03-08T23:20:53.153Z,34.07
2023-03-08T23:23:19.825Z,22.70
2023-03-08T23:25:46.416Z,21.63
2023-03-08T23:28:13.062Z,24.23
2023-03-08T23:30:41.431Z,21.27
2023-03-08T23:33:08.071Z,22.73
2023-03-08T23:35:34.659Z,22.87
2023-03-08T23:38:01.729Z,31.87
2023-03-08T23:40:28.384Z,24.23
2023-03-08T23:42:54.923Z,19.30
2023-03-08T23:45:21.545Z,19.57
2023-03-08T23:47:48.121Z,20.50
2023-03-08T23:50:14.796Z,21.47
2023-03-08T23:52:41.448Z,20.37
2023-03-08T23:55:08.346Z,18.33
2023-03-08T23:57:34.908Z,18.87
